createdAt,value
2018-12-19T00:00:53.398Z,72.99
2018-12-19T00:03:21.762Z,72.89
2018-12-19T00:05:50.084Z,72.97
2018-12-19T00:08:18.796Z,72.59
2018-12-19T00:10:47.145Z,72.86
2018-12-19T00:13:15.960Z,72.60
2018-12-19T00:15:44.345Z,72.46
2018-12-19T00:18:13.489Z,72.22
2018-12-19T00:20:41.807Z,72.41
2018-12-19T00:23:10.211Z,72.62
2018-12-19T00:25:39.185Z,72.71
2018-12-19T00:28:07.555Z,72.48
2018-12-19T00:30:36.051Z,72.17
2018-12-19T00:33:04.475Z,72.23
2018-12-19T00:35:33.033Z,71.75
2018-12-19T00:38:01.406Z,72.40
2018-12-19T00:40:29.817Z,72.38
2018-12-19T00:42:58.189Z,72.18
2018-12-19T00:45:26.517Z,72.41
2018-12-19T00:47:54.892Z,72.75
2018-12-19T00:50:23.302Z,72.90
2018-12-19T00:52:51.645Z,72.55
2018-12-19T00:55:20.115Z,72.59
2018-12-19T00:57:48.491Z,72.75
2018-12-19T01:00:17.620Z,72.92
2018-12-19T01:02:45.966Z,72.34
2018-12-19T01:05:14.748Z,72.26
2018-12-19T01:07:43.617Z,72.17
2018-12-19T01:10:11.969Z,72.06
2018-12-19T01:12:41.557Z,71.92
2018-12-19T01:15:09.990Z,71.92
2018-12-19T01:17:38.521Z,71.89
2018-12-19T01:20:07.217Z,71.65
2018-12-19T01:22:35.538Z,71.70
2018-12-19T01:25:04.691Z,72.13
2018-12-19T01:27:33.062Z,71.66
2018-12-19T01:30:01.724Z,72.06
2018-12-19T01:32:30.150Z,72.15
2018-12-19T01:34:58.477Z,72.18
2018-12-19T01:37:26.820Z,71.83
2018-12-19T01:39:55.182Z,71.27
2018-12-19T01:42:23.518Z,71.12
2018-12-19T01:44:51.893Z,71.32
2018-12-19T01:47:20.240Z,71.62
2018-12-19T01:49:48.687Z,71.28
2018-12-19T01:52:17.039Z,71.50
2018-12-19T01:54:45.394Z,71.71
2018-12-19T01:57:13.906Z,71.37
2018-12-19T01:59:42.241Z,71.46
2018-12-19T02:02:10.833Z,71.31
2018-12-19T02:04:41.270Z,71.25
2018-12-19T02:07:09.732Z,70.98
2018-12-19T02:09:38.097Z,71.25
2018-12-19T02:12:06.504Z,70.77
2018-12-19T02:14:34.924Z,70.97
2018-12-19T02:17:03.280Z,71.12
2018-12-19T02:19:31.617Z,71.03
2018-12-19T02:22:00.019Z,70.82
2018-12-19T02:24:28.377Z,70.98
2018-12-19T02:26:56.713Z,70.94
2018-12-19T02:29:25.062Z,70.71
2018-12-19T02:31:53.415Z,70.03
2018-12-19T02:34:21.766Z,70.46
2018-12-19T02:36:50.126Z,70.65
2018-12-19T02:39:18.777Z,70.23
2018-12-19T02:41:47.125Z,70.28
2018-12-19T02:44:15.740Z,70.27
2018-12-19T02:46:44.073Z,70.60
2018-12-19T02:49:12.400Z,69.45
2018-12-19T02:51:41.693Z,70.23
2018-12-19T02:54:11.131Z,70.23
2018-12-19T02:56:40.268Z,69.91
2018-12-19T02:59:08.674Z,69.65
2018-12-19T03:01:37.049Z,70.02
2018-12-19T03:04:05.390Z,69.58
2018-12-19T03:06:33.724Z,69.47
2018-12-19T03:09:02.077Z,69.20
2018-12-19T03:11:30.389Z,69.31
2018-12-19T03:13:58.817Z,69.99
2018-12-19T03:16:27.157Z,69.77
2018-12-19T03:18:55.526Z,70.41
2018-12-19T03:21:23.891Z,70.00
2018-12-19T03:23:52.233Z,70.02
2018-12-19T03:26:20.823Z,69.97
2018-12-19T03:28:49.187Z,69.54
2018-12-19T03:31:17.625Z,69.70
2018-12-19T03:33:46.054Z,69.26
2018-12-19T03:36:14.807Z,69.40
2018-12-19T03:38:43.154Z,69.56
2018-12-19T03:41:11.494Z,68.71
2018-12-19T03:43:39.858Z,68.36
2018-12-19T03:46:08.304Z,68.41
2018-12-19T03:48:38.067Z,68.52
2018-12-19T03:51:06.410Z,68.93
2018-12-19T03:53:34.766Z,68.92
2018-12-19T03:56:03.095Z,68.56
2018-12-19T03:58:31.428Z,69.08
2018-12-19T04:01:00.232Z,68.94
2018-12-19T04:03:28.609Z,69.24
2018-12-19T04:05:56.994Z,69.18
2018-12-19T04:08:25.370Z,69.42
2018-12-19T04:10:53.710Z,69.22
2018-12-19T04:13:22.081Z,69.48
2018-12-19T04:15:50.421Z,69.52
2018-12-19T04:18:18.775Z,69.11
2018-12-19T04:20:47.119Z,69.58
2018-12-19T04:23:16.039Z,69.89
2018-12-19T04:25:44.388Z,69.24
2018-12-19T04:28:12.774Z,68.49
2018-12-19T04:30:41.145Z,68.70
2018-12-19T04:33:09.489Z,68.62
2018-12-19T04:35:38.609Z,68.02
2018-12-19T04:38:06.958Z,68.69
2018-12-19T04:40:35.278Z,68.46
2018-12-19T04:43:04.700Z,69.49
2018-12-19T04:45:33.053Z,69.33
2018-12-19T04:48:01.401Z,69.35
2018-12-19T04:50:29.728Z,69.58
2018-12-19T04:52:58.077Z,69.49
2018-12-19T04:55:26.453Z,69.61
2018-12-19T04:57:54.800Z,69.21
2018-12-19T05:00:23.153Z,68.75
2018-12-19T05:02:51.499Z,68.51
2018-12-19T05:05:19.842Z,68.47
2018-12-19T05:07:48.176Z,68.06
2018-12-19T05:10:17.878Z,67.85
2018-12-19T05:12:46.283Z,68.49
2018-12-19T05:15:15.209Z,68.81
2018-12-19T05:17:44.023Z,68.82
2018-12-19T05:20:12.926Z,68.54
2018-12-19T05:22:41.264Z,68.30
2018-12-19T05:25:13.014Z,67.72
2018-12-19T05:27:41.396Z,67.68
2018-12-19T05:30:09.877Z,67.88
2018-12-19T05:32:38.240Z,67.85
2018-12-19T05:35:06.811Z,67.29
2018-12-19T05:37:35.222Z,67.69
2018-12-19T05:40:04.910Z,67.91
2018-12-19T05:42:33.239Z,68.55
2018-12-19T05:45:02.314Z,68.68
2018-12-19T05:47:30.815Z,68.07
2018-12-19T05:49:59.227Z,68.90
2018-12-19T05:52:27.633Z,68.77
2018-12-19T05:54:56.043Z,69.29
2018-12-19T05:57:24.393Z,70.08
2018-12-19T05:59:52.744Z,70.22
2018-12-19T06:02:21.106Z,71.01
2018-12-19T06:04:49.438Z,70.96
2018-12-19T06:07:17.801Z,70.62
2018-12-19T06:09:46.139Z,70.70
2018-12-19T06:12:14.835Z,71.17
2018-12-19T06:14:43.238Z,71.81
2018-12-19T06:17:11.585Z,71.33
2018-12-19T06:19:39.897Z,71.29
2018-12-19T06:22:08.298Z,72.36
2018-12-19T06:24:36.616Z,72.32
2018-12-19T06:27:05.031Z,71.97
2018-12-19T06:29:33.379Z,72.17
2018-12-19T06:32:01.732Z,72.78
2018-12-19T06:34:30.075Z,72.30
2018-12-19T06:36:58.439Z,72.26
2018-12-19T06:39:27.070Z,71.32
2018-12-19T06:41:55.425Z,71.91
2018-12-19T06:44:23.796Z,71.74
2018-12-19T06:46:52.140Z,71.75
2018-12-19T06:49:20.478Z,71.84
2018-12-19T06:51:48.827Z,71.87
2018-12-19T06:54:17.304Z,71.25
2018-12-19T06:56:45.672Z,71.92
2018-12-19T06:59:13.996Z,72.24
2018-12-19T07:01:42.381Z,71.92
2018-12-19T07:04:10.735Z,72.57
2018-12-19T07:06:39.167Z,72.59
2018-12-19T07:09:07.970Z,72.17
2018-12-19T07:11:36.342Z,71.26
2018-12-19T07:14:04.669Z,70.65
2018-12-19T07:16:33.015Z,70.72
2018-12-19T07:19:01.347Z,70.93
2018-12-19T07:21:29.702Z,71.26
2018-12-19T07:23:58.059Z,70.93
2018-12-19T07:26:26.379Z,70.78
2018-12-19T07:28:54.726Z,70.92
2018-12-19T07:31:23.131Z,71.11
2018-12-19T07:33:51.465Z,70.71
2018-12-19T07:36:19.810Z,70.21
2018-12-19T07:38:48.140Z,72.65
2018-12-19T07:41:17.847Z,76.21
2018-12-19T07:43:46.759Z,78.51
2018-12-19T07:46:19.779Z,68.33
2018-12-19T07:48:45.591Z,69.80
2018-12-19T07:51:14.022Z,66.75
2018-12-19T07:53:42.364Z,65.85
2018-12-19T07:56:10.821Z,71.24
2018-12-19T07:58:39.176Z,72.00
2018-12-19T08:01:07.691Z,72.16
2018-12-19T08:03:36.082Z,65.85
2018-12-19T08:06:04.476Z,70.83
2018-12-19T08:08:32.923Z,67.53
2018-12-19T08:11:01.378Z,69.76
2018-12-19T08:13:29.735Z,71.60
2018-12-19T08:15:58.064Z,68.93
2018-12-19T08:18:26.423Z,69.77
2018-12-19T08:20:54.772Z,68.45
2018-12-19T08:23:23.149Z,67.81
2018-12-19T08:25:51.459Z,68.94
2018-12-19T08:28:19.851Z,68.66
2018-12-19T08:30:48.183Z,68.92
2018-12-19T08:33:16.550Z,70.87
2018-12-19T08:35:44.876Z,69.74
2018-12-19T08:38:13.219Z,69.96
2018-12-19T08:40:41.604Z,70.63
2018-12-19T08:43:10.057Z,69.91
2018-12-19T08:45:38.813Z,68.82
2018-12-19T08:48:07.244Z,69.32
2018-12-19T08:50:35.550Z,69.94
2018-12-19T08:53:03.898Z,69.59
2018-12-19T08:55:32.253Z,69.90
2018-12-19T08:58:00.586Z,69.65
2018-12-19T09:00:28.927Z,70.22
2018-12-19T09:02:58.165Z,69.52
2018-12-19T09:05:26.583Z,70.14
2018-12-19T09:07:54.957Z,69.68
2018-12-19T09:10:23.303Z,70.58
2018-12-19T09:12:51.701Z,69.17
2018-12-19T09:15:27.522Z,68.71
2018-12-19T09:17:52.349Z,68.71
2018-12-19T09:20:20.758Z,69.07
2018-12-19T09:22:49.253Z,69.26
2018-12-19T09:25:17.600Z,68.66
2018-12-19T09:27:46.098Z,68.29
2018-12-19T09:30:14.427Z,69.14
2018-12-19T09:32:42.795Z,68.65
2018-12-19T09:35:11.729Z,68.75
2018-12-19T09:37:40.045Z,70.96
2018-12-19T09:40:09.865Z,70.40
2018-12-19T09:42:38.157Z,70.66
2018-12-19T09:45:06.598Z,69.68
2018-12-19T09:47:34.919Z,69.98
2018-12-19T09:50:04.217Z,69.53
2018-12-19T09:52:32.546Z,70.38
2018-12-19T09:55:00.885Z,70.68
2018-12-19T09:57:29.393Z,70.74
2018-12-19T09:59:57.758Z,70.67
2018-12-19T10:02:26.157Z,70.33
2018-12-19T10:04:54.511Z,70.62
2018-12-19T10:07:22.947Z,72.15
2018-12-19T10:09:51.312Z,71.09
2018-12-19T10:12:19.627Z,70.65
2018-12-19T10:14:47.960Z,70.56
2018-12-19T10:17:16.311Z,70.65
2018-12-19T10:19:44.650Z,71.07
2018-12-19T10:22:14.923Z,71.43
2018-12-19T10:24:47.149Z,72.25
2018-12-19T10:27:17.464Z,72.18
2018-12-19T10:29:45.843Z,71.16
2018-12-19T10:32:14.158Z,71.27
2018-12-19T10:34:43.077Z,70.79
2018-12-19T10:37:11.400Z,70.25
2018-12-19T10:39:39.769Z,70.73
2018-12-19T10:42:08.397Z,69.32
2018-12-19T10:44:36.819Z,70.42
2018-12-19T10:47:05.152Z,69.35
2018-12-19T10:49:33.533Z,68.76
2018-12-19T10:52:01.871Z,68.43
2018-12-19T10:54:30.226Z,69.74
2018-12-19T10:56:58.589Z,69.05
2018-12-19T10:59:26.945Z,68.51
2018-12-19T11:01:56.127Z,68.00
2018-12-19T11:04:25.092Z,67.73
2018-12-19T11:06:54.510Z,67.57
2018-12-19T11:09:23.341Z,68.72
2018-12-19T11:11:52.377Z,67.01
2018-12-19T11:14:21.418Z,68.70
2018-12-19T11:16:49.757Z,68.02
2018-12-19T11:19:18.076Z,67.34
2018-12-19T11:21:46.510Z,66.25
2018-12-19T11:24:14.820Z,66.78
2018-12-19T11:26:43.237Z,66.52
2018-12-19T11:29:11.572Z,67.01
2018-12-19T11:31:39.916Z,66.48
2018-12-19T11:34:08.611Z,67.60
2018-12-19T11:36:36.930Z,67.93
2018-12-19T11:39:06.770Z,68.71
2018-12-19T11:41:38.981Z,68.35
2018-12-19T11:44:05.721Z,68.05
2018-12-19T11:46:34.477Z,68.45
2018-12-19T11:49:02.899Z,68.09
2018-12-19T11:51:31.253Z,68.20
2018-12-19T11:53:59.557Z,66.56
2018-12-19T11:56:27.911Z,65.75
2018-12-19T11:58:56.279Z,65.14
2018-12-19T12:01:24.603Z,64.72
2018-12-19T12:03:52.919Z,65.84
2018-12-19T12:06:21.301Z,65.29
2018-12-19T12:08:49.633Z,65.15
2018-12-19T12:11:17.978Z,65.06
2018-12-19T12:13:46.330Z,65.92
2018-12-19T12:16:14.717Z,65.70
2018-12-19T12:18:43.137Z,65.23
2018-12-19T12:21:11.455Z,65.50
2018-12-19T12:23:39.815Z,64.87
2018-12-19T12:26:08.144Z,64.64
2018-12-19T12:28:36.540Z,65.11
2018-12-19T12:31:05.015Z,65.38
2018-12-19T12:33:33.391Z,65.36
2018-12-19T12:36:02.013Z,65.53
2018-12-19T12:38:34.084Z,66.42
2018-12-19T12:41:00.748Z,66.56
2018-12-19T12:43:29.134Z,66.68
2018-12-19T12:45:57.425Z,67.15
2018-12-19T12:48:25.810Z,66.58
2018-12-19T12:50:54.131Z,65.61
2018-12-19T12:53:22.497Z,66.16
2018-12-19T12:55:50.823Z,66.58
2018-12-19T12:58:19.181Z,66.48
2018-12-19T13:00:47.510Z,66.68
2018-12-19T13:03:15.917Z,66.64
2018-12-19T13:05:44.266Z,66.85
2018-12-19T13:08:12.707Z,66.30
2018-12-19T13:10:41.021Z,66.48
2018-12-19T13:13:09.600Z,66.17
2018-12-19T13:15:40.696Z,66.63
2018-12-19T13:18:09.995Z,66.13
2018-12-19T13:20:38.329Z,65.38
2018-12-19T13:23:06.721Z,64.81
2018-12-19T13:25:35.043Z,65.56
2018-12-19T13:28:03.412Z,65.22
2018-12-19T13:30:31.748Z,65.74
2018-12-19T13:33:00.071Z,65.09
2018-12-19T13:35:28.424Z,65.20
2018-12-19T13:37:56.774Z,65.67
2018-12-19T13:40:25.131Z,65.05
2018-12-19T13:42:53.460Z,64.53
2018-12-19T13:45:21.813Z,64.67
2018-12-19T13:47:50.145Z,64.84
2018-12-19T13:50:18.700Z,65.83
2018-12-19T13:52:47.044Z,65.05
2018-12-19T13:55:15.389Z,65.22
2018-12-19T13:57:43.713Z,65.20
2018-12-19T14:00:12.913Z,65.84
2018-12-19T14:02:41.254Z,65.00
2018-12-19T14:05:11.306Z,65.25
2018-12-19T14:07:39.640Z,67.09
2018-12-19T14:10:09.168Z,68.10
2018-12-19T14:12:37.498Z,67.95
2018-12-19T14:15:06.779Z,68.46
2018-12-19T14:17:35.115Z,67.86
2018-12-19T14:20:05.078Z,67.90
2018-12-19T14:22:33.405Z,68.29
2018-12-19T14:25:01.762Z,67.45
2018-12-19T14:27:30.076Z,67.91
2018-12-19T14:29:58.440Z,68.02
2018-12-19T14:32:26.770Z,68.51
2018-12-19T14:34:55.140Z,68.14
2018-12-19T14:37:23.458Z,67.78
2018-12-19T14:39:51.804Z,67.62
2018-12-19T14:42:20.137Z,68.13
2018-12-19T14:44:48.491Z,67.76
2018-12-19T14:47:16.836Z,68.00
2018-12-19T14:49:45.208Z,68.18
2018-12-19T14:52:13.520Z,67.98
2018-12-19T14:54:41.881Z,67.72
2018-12-19T14:57:10.303Z,68.40
2018-12-19T14:59:38.665Z,69.06
2018-12-19T15:02:08.386Z,68.61
2018-12-19T15:04:36.738Z,69.13
2018-12-19T15:07:05.070Z,68.37
2018-12-19T15:09:33.429Z,68.91
2018-12-19T15:12:01.795Z,68.35
2018-12-19T15:14:30.118Z,69.06
2018-12-19T15:16:58.471Z,69.69
2018-12-19T15:19:26.810Z,69.64
2018-12-19T15:21:55.173Z,69.38
2018-12-19T15:24:23.540Z,69.99
2018-12-19T15:26:51.961Z,69.44
2018-12-19T15:29:20.339Z,70.25
2018-12-19T15:31:48.674Z,69.76
2018-12-19T15:34:17.075Z,70.69
2018-12-19T15:36:45.422Z,70.27
2018-12-19T15:39:13.776Z,70.29
2018-12-19T15:41:42.157Z,70.29
2018-12-19T15:44:10.565Z,69.56
2018-12-19T15:46:38.897Z,70.26
2018-12-19T15:49:07.223Z,70.92
2018-12-19T15:51:35.644Z,70.79
2018-12-19T15:54:04.073Z,71.29
2018-12-19T15:56:32.518Z,70.49
2018-12-19T15:59:00.840Z,70.19
2018-12-19T16:01:29.601Z,70.36
2018-12-19T16:03:57.941Z,69.19
2018-12-19T16:06:26.302Z,69.91
2018-12-19T16:08:54.632Z,70.93
2018-12-19T16:11:23.504Z,70.79
2018-12-19T16:13:51.835Z,70.43
2018-12-19T16:16:20.252Z,70.58
2018-12-19T16:18:48.595Z,70.33
2018-12-19T16:21:17.160Z,70.54
2018-12-19T16:23:45.465Z,69.79
2018-12-19T16:26:14.179Z,69.62
2018-12-19T16:28:42.489Z,69.71
2018-12-19T16:31:10.844Z,70.09
2018-12-19T16:33:39.175Z,70.06
2018-12-19T16:36:07.635Z,70.00
2018-12-19T16:38:36.045Z,70.10
2018-12-19T16:41:04.398Z,70.17
2018-12-19T16:43:32.746Z,70.26
2018-12-19T16:46:01.223Z,70.37
2018-12-19T16:48:29.584Z,69.96
2018-12-19T16:50:57.918Z,69.85
2018-12-19T16:53:26.968Z,70.62
2018-12-19T16:55:55.299Z,70.68
2018-12-19T16:58:23.699Z,70.29
2018-12-19T17:00:52.004Z,70.21
2018-12-19T17:03:20.355Z,69.86
2018-12-19T17:05:48.681Z,70.47
2018-12-19T17:08:17.048Z,70.37
2018-12-19T17:10:45.416Z,70.93
2018-12-19T17:13:13.769Z,71.61
2018-12-19T17:15:42.106Z,71.22
2018-12-19T17:18:10.656Z,71.59
2018-12-19T17:20:39.004Z,71.28
2018-12-19T17:23:07.432Z,71.26
2018-12-19T17:25:35.772Z,71.63
2018-12-19T17:28:04.219Z,72.13
2018-12-19T17:30:32.569Z,72.63
2018-12-19T17:33:00.917Z,72.68
2018-12-19T17:35:29.268Z,73.30
2018-12-19T17:37:57.626Z,72.90
2018-12-19T17:40:26.015Z,73.04
2018-12-19T17:42:59.436Z,74.13
2018-12-19T17:45:24.791Z,74.91
2018-12-19T17:47:53.130Z,75.77
2018-12-19T17:50:21.474Z,75.72
2018-12-19T17:52:49.865Z,75.38
2018-12-19T17:55:18.274Z,75.37
2018-12-19T17:57:46.702Z,75.08
2018-12-19T18:00:15.831Z,74.90
2018-12-19T18:02:44.133Z,74.35
2018-12-19T18:05:12.712Z,74.45
2018-12-19T18:07:41.033Z,73.84
2018-12-19T18:10:09.386Z,73.52
2018-12-19T18:12:37.738Z,73.31
2018-12-19T18:15:06.152Z,72.96
2018-12-19T18:17:34.600Z,72.76
2018-12-19T18:20:04.454Z,73.03
2018-12-19T18:22:32.763Z,72.71
2018-12-19T18:25:01.117Z,73.02
2018-12-19T18:27:30.406Z,73.01
2018-12-19T18:29:58.754Z,73.02
2018-12-19T18:32:27.093Z,73.04
2018-12-19T18:34:55.450Z,72.91
2018-12-19T18:37:23.786Z,72.97
2018-12-19T18:39:52.226Z,72.54
2018-12-19T18:42:20.585Z,72.69
2018-12-19T18:44:48.936Z,73.06
2018-12-19T18:47:17.621Z,72.69
2018-12-19T18:49:45.970Z,72.35
2018-12-19T18:52:14.575Z,72.77
2018-12-19T18:54:42.917Z,72.68
2018-12-19T18:57:13.244Z,72.77
2018-12-19T18:59:41.797Z,72.20
2018-12-19T19:02:10.134Z,72.75
2018-12-19T19:04:38.481Z,72.19
2018-12-19T19:07:06.854Z,72.44
2018-12-19T19:09:35.269Z,72.48
2018-12-19T19:12:04.589Z,72.97
2018-12-19T19:14:33.173Z,72.89
2018-12-19T19:17:01.520Z,72.56
2018-12-19T19:19:29.939Z,72.76
2018-12-19T19:21:58.261Z,72.30
2018-12-19T19:24:26.646Z,72.59
2018-12-19T19:26:55.105Z,71.54
2018-12-19T19:29:23.522Z,72.01
2018-12-19T19:31:51.891Z,71.24
2018-12-19T19:34:24.962Z,71.49
2018-12-19T19:36:50.630Z,70.86
2018-12-19T19:39:18.955Z,71.02
2018-12-19T19:41:47.359Z,70.84
2018-12-19T19:44:15.840Z,70.71
2018-12-19T19:46:45.536Z,70.61
2018-12-19T19:49:14.452Z,70.67
2018-12-19T19:51:42.840Z,70.66
2018-12-19T19:54:11.233Z,70.07
2018-12-19T19:56:39.547Z,69.76
2018-12-19T19:59:07.894Z,70.03
2018-12-19T20:01:36.390Z,70.54
2018-12-19T20:04:05.272Z,70.16
2018-12-19T20:06:33.630Z,70.22
2018-12-19T20:09:01.972Z,70.00
2018-12-19T20:11:30.318Z,70.66
2018-12-19T20:13:58.648Z,70.15
2018-12-19T20:16:27.006Z,70.01
2018-12-19T20:18:55.372Z,69.47
2018-12-19T20:21:23.719Z,70.40
2018-12-19T20:23:52.039Z,71.04
2018-12-19T20:26:20.386Z,69.61
2018-12-19T20:28:48.804Z,71.23
2018-12-19T20:31:17.117Z,71.87
2018-12-19T20:33:45.473Z,71.34
2018-12-19T20:36:13.995Z,71.70
2018-12-19T20:38:42.285Z,71.80
2018-12-19T20:41:10.731Z,72.09
2018-12-19T20:43:40.010Z,71.75
2018-12-19T20:46:08.697Z,71.24
2018-12-19T20:48:37.054Z,71.05
2018-12-19T20:51:05.415Z,71.86
2018-12-19T20:53:33.864Z,72.25
2018-12-19T20:56:03.912Z,72.53
2018-12-19T20:58:32.380Z,72.21
2018-12-19T21:01:00.880Z,71.86
2018-12-19T21:03:29.239Z,71.44
2018-12-19T21:05:57.554Z,71.36
2018-12-19T21:08:25.922Z,71.23
2018-12-19T21:10:54.263Z,71.42
2018-12-19T21:13:22.645Z,72.10
2018-12-19T21:15:50.988Z,72.63
2018-12-19T21:18:21.991Z,73.30
2018-12-19T21:20:50.318Z,72.74
2018-12-19T21:23:18.713Z,73.30
2018-12-19T21:25:47.038Z,72.47
2018-12-19T21:28:15.377Z,72.71
2018-12-19T21:30:43.781Z,73.32
2018-12-19T21:33:14.206Z,73.47
2018-12-19T21:35:42.843Z,73.65
2018-12-19T21:38:11.270Z,73.03
2018-12-19T21:40:39.679Z,72.61
2018-12-19T21:43:08.374Z,72.33
2018-12-19T21:45:36.789Z,72.26
2018-12-19T21:48:05.188Z,72.36
2018-12-19T21:50:33.587Z,72.57
2018-12-19T21:53:02.089Z,73.62
2018-12-19T21:55:30.465Z,73.89
2018-12-19T21:57:58.805Z,73.35
2018-12-19T22:00:27.670Z,73.26
2018-12-19T22:02:56.126Z,74.00
2018-12-19T22:05:24.583Z,73.15
2018-12-19T22:07:52.992Z,73.05
2018-12-19T22:10:21.397Z,73.25
2018-12-19T22:12:49.763Z,74.23
2018-12-19T22:15:18.315Z,74.58
2018-12-19T22:17:47.050Z,74.66
2018-12-19T22:20:15.942Z,74.74
2018-12-19T22:22:44.358Z,74.25
2018-12-19T22:25:13.276Z,73.95
2018-12-19T22:27:41.699Z,73.95
2018-12-19T22:30:10.218Z,73.22
2018-12-19T22:32:38.561Z,72.80
2018-12-19T22:35:06.994Z,72.62
2018-12-19T22:37:35.368Z,71.74
2018-12-19T22:40:06.154Z,71.73
2018-12-19T22:42:34.541Z,71.25
2018-12-19T22:45:03.373Z,71.41
2018-12-19T22:47:31.813Z,71.52
2018-12-19T22:50:00.823Z,71.41
2018-12-19T22:52:29.373Z,71.31
2018-12-19T22:54:57.812Z,71.92
2018-12-19T22:57:26.188Z,71.81
2018-12-19T22:59:54.672Z,71.92
2018-12-19T23:02:25.679Z,72.11
2018-12-19T23:04:54.061Z,72.15
2018-12-19T23:07:22.463Z,71.60
2018-12-19T23:09:50.842Z,72.06
2018-12-19T23:12:19.311Z,71.61
2018-12-19T23:14:47.795Z,72.22
2018-12-19T23:17:19.929Z,71.56
2018-12-19T23:19:48.398Z,71.66
2018-12-19T23:22:16.835Z,71.93
2018-12-19T23:24:45.228Z,72.04
2018-12-19T23:27:13.741Z,72.10
2018-12-19T23:29:42.155Z,71.80
2018-12-19T23:32:10.597Z,72.29
2018-12-19T23:34:39.419Z,72.17
2018-12-19T23:37:08.553Z,71.05
2018-12-19T23:39:37.075Z,72.29
2018-12-19T23:42:05.527Z,74.82
2018-12-19T23:44:33.963Z,76.36
2018-12-19T23:47:02.562Z,73.30
2018-12-19T23:49:30.964Z,70.87
2018-12-19T23:51:59.327Z,70.78
2018-12-19T23:54:29.152Z,71.24
2018-12-19T23:56:57.891Z,71.99
2018-12-19T23:59:26.320Z,71.93
